KLM1635 LMML-HEAL
Flight info
| Callsign | KLM1635 |
|---|---|
| Flight time | 1h 57m |
| Altitude | 39000 |
| Route | GODAK DCT BONAR M980 LOSUL DCT BRN DCT MMA DCT DASUM DCT BORIK |
| Aircraft | A20N/M-SDE2E3FGHIRWXY/LB1 |
Departure
| Time | 2026-05-05 17:58 |
|---|---|
| Airport | Malta International Airport (LMML) |
Arrival
| Time | 2026-05-05 19:55 |
|---|---|
| Airport | El Alamein International Airport (HEAL) |
| Time | Latitude | Longitude | Altitude | Speed | Heading |
|---|---|---|---|---|---|
| 2026-05-05 17:46 | 35.85611 | 14.48288 | 263 ft | 0 kts | 1° |
| 2026-05-05 17:52 | 35.85599 | 14.48288 | 263 ft | 3 kts | 3° |
| 2026-05-05 17:53 | 35.85579 | 14.48286 | 264 ft | 3 kts | 5° |
| 2026-05-05 17:53 | 35.85559 | 14.48284 | 265 ft | 3 kts | 358° |
| 2026-05-05 17:53 | 35.85540 | 14.48287 | 265 ft | 3 kts | 326° |
| 2026-05-05 17:53 | 35.85535 | 14.48292 | 265 ft | 0 kts | 313° |
| 2026-05-05 17:55 | 35.85550 | 14.48272 | 265 ft | 4 kts | 313° |
| 2026-05-05 17:56 | 35.85568 | 14.48250 | 265 ft | 5 kts | 317° |
| 2026-05-05 17:56 | 35.85612 | 14.48218 | 264 ft | 8 kts | 347° |
| 2026-05-05 17:56 | 35.85660 | 14.48183 | 262 ft | 8 kts | 286° |
| 2026-05-05 17:56 | 35.85662 | 14.48127 | 263 ft | 5 kts | 271° |
| 2026-05-05 17:57 | 35.85662 | 14.48087 | 264 ft | 10 kts | 270° |
| 2026-05-05 17:57 | 35.85601 | 14.48045 | 268 ft | 13 kts | 158° |
| 2026-05-05 17:57 | 35.85457 | 14.48121 | 267 ft | 26 kts | 142° |
| 2026-05-05 17:57 | 35.85285 | 14.48326 | 267 ft | 60 kts | 134° |
| 2026-05-05 17:58 | 35.84836 | 14.48883 | 261 ft | 121 kts | 135° |
| 2026-05-05 17:58 | 35.84127 | 14.49759 | 330 ft | 161 kts | 134° |
| 2026-05-05 17:58 | 35.83281 | 14.50652 | 1034 ft | 160 kts | 142° |
| 2026-05-05 17:58 | 35.82291 | 14.51247 | 1682 ft | 168 kts | 169° |
| 2026-05-05 17:59 | 35.81073 | 14.50984 | 1978 ft | 194 kts | 200° |
| 2026-05-05 17:59 | 35.79703 | 14.50498 | 2325 ft | 217 kts | 184° |
| 2026-05-05 17:59 | 35.78098 | 14.50357 | 2758 ft | 240 kts | 178° |
| 2026-05-05 17:59 | 35.76420 | 14.50691 | 3379 ft | 253 kts | 161° |
| 2026-05-05 18:00 | 35.74807 | 14.51678 | 4198 ft | 261 kts | 145° |
| 2026-05-05 18:00 | 35.73490 | 14.53207 | 5041 ft | 267 kts | 128° |
| 2026-05-05 18:00 | 35.72576 | 14.55223 | 5885 ft | 274 kts | 110° |
| 2026-05-05 18:00 | 35.72202 | 14.57541 | 6725 ft | 280 kts | 94° |
| 2026-05-05 18:01 | 35.72070 | 14.59946 | 7538 ft | 284 kts | 94° |
| 2026-05-05 18:01 | 35.71937 | 14.62387 | 8330 ft | 289 kts | 94° |
| 2026-05-05 18:01 | 35.71797 | 14.64882 | 9100 ft | 295 kts | 95° |
| 2026-05-05 18:01 | 35.71652 | 14.67425 | 9896 ft | 301 kts | 95° |
| 2026-05-05 18:02 | 35.71502 | 14.70026 | 10475 ft | 313 kts | 95° |
| 2026-05-05 18:02 | 35.71339 | 14.72801 | 10712 ft | 337 kts | 95° |
| 2026-05-05 18:02 | 35.71165 | 14.75778 | 10929 ft | 360 kts | 95° |
| 2026-05-05 18:02 | 35.70981 | 14.78900 | 11421 ft | 370 kts | 95° |
| 2026-05-05 18:03 | 35.70794 | 14.82080 | 12085 ft | 375 kts | 95° |
| 2026-05-05 18:03 | 35.70605 | 14.85304 | 12759 ft | 380 kts | 95° |
| 2026-05-05 18:03 | 35.70412 | 14.88561 | 13473 ft | 383 kts | 95° |
| 2026-05-05 18:03 | 35.70211 | 14.91859 | 14128 ft | 388 kts | 95° |
| 2026-05-05 18:04 | 35.70005 | 14.95177 | 14721 ft | 392 kts | 94° |
| 2026-05-05 18:04 | 35.69799 | 14.98535 | 15327 ft | 395 kts | 94° |
| 2026-05-05 18:04 | 35.69591 | 15.01933 | 15920 ft | 399 kts | 94° |
| 2026-05-05 18:04 | 35.69384 | 15.05309 | 16499 ft | 403 kts | 94° |
| 2026-05-05 18:05 | 35.69171 | 15.08763 | 17066 ft | 407 kts | 94° |
| 2026-05-05 18:05 | 35.68954 | 15.12258 | 17628 ft | 411 kts | 94° |
| 2026-05-05 18:05 | 35.68733 | 15.15770 | 18178 ft | 415 kts | 94° |
| 2026-05-05 18:05 | 35.68509 | 15.19339 | 18672 ft | 418 kts | 94° |
| 2026-05-05 18:06 | 35.68284 | 15.22922 | 19153 ft | 422 kts | 94° |
| 2026-05-05 18:06 | 35.68136 | 15.25307 | 19476 ft | 424 kts | 94° |
| 2026-05-05 18:06 | 35.67836 | 15.30170 | 20121 ft | 428 kts | 94° |
| 2026-05-05 18:06 | 35.67609 | 15.33831 | 20591 ft | 431 kts | 94° |
| 2026-05-05 18:07 | 35.67375 | 15.37518 | 21060 ft | 434 kts | 94° |
| 2026-05-05 18:07 | 35.67136 | 15.41230 | 21517 ft | 437 kts | 94° |
| 2026-05-05 18:07 | 35.66850 | 15.44962 | 21956 ft | 440 kts | 99° |
| 2026-05-05 18:07 | 35.66222 | 15.48656 | 22395 ft | 443 kts | 103° |
| 2026-05-05 18:08 | 35.65532 | 15.52315 | 22829 ft | 446 kts | 103° |
| 2026-05-05 18:08 | 35.64829 | 15.56041 | 23256 ft | 449 kts | 103° |
| 2026-05-05 18:08 | 35.64117 | 15.59801 | 23671 ft | 452 kts | 105° |
| 2026-05-05 18:08 | 35.63125 | 15.63471 | 24012 ft | 454 kts | 114° |
| 2026-05-05 18:09 | 35.61837 | 15.67023 | 24343 ft | 456 kts | 115° |
| 2026-05-05 18:09 | 35.60534 | 15.70593 | 24671 ft | 459 kts | 115° |
| 2026-05-05 18:09 | 35.59227 | 15.74185 | 25004 ft | 462 kts | 115° |
| 2026-05-05 18:09 | 35.57911 | 15.77804 | 25355 ft | 464 kts | 115° |
| 2026-05-05 18:10 | 35.56590 | 15.81432 | 25692 ft | 467 kts | 115° |
| 2026-05-05 18:10 | 35.55264 | 15.85080 | 26024 ft | 469 kts | 115° |
| 2026-05-05 18:10 | 35.53932 | 15.88746 | 26361 ft | 471 kts | 115° |
| 2026-05-05 18:10 | 35.52593 | 15.92429 | 26684 ft | 474 kts | 115° |
| 2026-05-05 18:11 | 35.51244 | 15.96128 | 27018 ft | 476 kts | 115° |
| 2026-05-05 18:11 | 35.49887 | 15.99842 | 27326 ft | 478 kts | 115° |
| 2026-05-05 18:11 | 35.48524 | 16.03565 | 27610 ft | 481 kts | 115° |
| 2026-05-05 18:11 | 35.47163 | 16.07274 | 27892 ft | 483 kts | 115° |
| 2026-05-05 18:12 | 35.45780 | 16.11041 | 28175 ft | 485 kts | 115° |
| 2026-05-05 18:12 | 35.44387 | 16.14834 | 28459 ft | 488 kts | 115° |
| 2026-05-05 18:12 | 35.42994 | 16.18626 | 28743 ft | 490 kts | 114° |
| 2026-05-05 18:12 | 35.41588 | 16.22451 | 29035 ft | 492 kts | 114° |
| 2026-05-05 18:13 | 35.40177 | 16.26279 | 29318 ft | 493 kts | 115° |
| 2026-05-05 18:13 | 35.38762 | 16.30105 | 29722 ft | 492 kts | 115° |
| 2026-05-05 18:13 | 35.37352 | 16.33923 | 30138 ft | 491 kts | 115° |
| 2026-05-05 18:13 | 35.35948 | 16.37727 | 30515 ft | 490 kts | 114° |
| 2026-05-05 18:14 | 35.34538 | 16.41544 | 30847 ft | 490 kts | 115° |
| 2026-05-05 18:14 | 35.33132 | 16.45340 | 31153 ft | 489 kts | 115° |
| 2026-05-05 18:14 | 35.31725 | 16.49130 | 31481 ft | 489 kts | 115° |
| 2026-05-05 18:14 | 35.30316 | 16.52915 | 31809 ft | 488 kts | 115° |
| 2026-05-05 18:15 | 35.28910 | 16.56685 | 32136 ft | 488 kts | 115° |
| 2026-05-05 18:15 | 35.27496 | 16.60467 | 32463 ft | 487 kts | 115° |
| 2026-05-05 18:15 | 35.26091 | 16.64227 | 32802 ft | 487 kts | 115° |
| 2026-05-05 18:15 | 35.24683 | 16.67999 | 33136 ft | 486 kts | 115° |
| 2026-05-05 18:16 | 35.23295 | 16.71716 | 33456 ft | 486 kts | 115° |
| 2026-05-05 18:16 | 35.21888 | 16.75478 | 33727 ft | 487 kts | 115° |
| 2026-05-05 18:16 | 35.20479 | 16.79243 | 34025 ft | 487 kts | 115° |
| 2026-05-05 18:16 | 35.19066 | 16.83005 | 34300 ft | 487 kts | 115° |
| 2026-05-05 18:17 | 35.17651 | 16.86764 | 34577 ft | 487 kts | 115° |
| 2026-05-05 18:17 | 35.16232 | 16.90523 | 34831 ft | 487 kts | 115° |
| 2026-05-05 18:17 | 35.14811 | 16.94284 | 35043 ft | 488 kts | 115° |
| 2026-05-05 18:18 | 35.11962 | 17.01844 | 35119 ft | 491 kts | 115° |
| 2026-05-05 18:18 | 35.09107 | 17.09428 | 35119 ft | 492 kts | 115° |
| 2026-05-05 18:19 | 35.06232 | 17.17017 | 35121 ft | 493 kts | 115° |
| 2026-05-05 18:19 | 35.03345 | 17.24604 | 35118 ft | 493 kts | 115° |
| 2026-05-05 18:20 | 35.00454 | 17.32197 | 35120 ft | 493 kts | 115° |
| 2026-05-05 18:20 | 34.97557 | 17.39776 | 35122 ft | 493 kts | 115° |
| 2026-05-05 18:21 | 34.94664 | 17.47356 | 35116 ft | 493 kts | 115° |
| 2026-05-05 18:21 | 34.91779 | 17.54875 | 35117 ft | 493 kts | 115° |
| 2026-05-05 18:22 | 34.88860 | 17.62441 | 35119 ft | 493 kts | 115° |
| 2026-05-05 18:22 | 34.85950 | 17.70001 | 35119 ft | 493 kts | 115° |
| 2026-05-05 18:23 | 34.83037 | 17.77572 | 35128 ft | 493 kts | 115° |
| 2026-05-05 18:23 | 34.80108 | 17.85135 | 35125 ft | 494 kts | 116° |
| 2026-05-05 18:24 | 34.77172 | 17.92686 | 35125 ft | 494 kts | 115° |
| 2026-05-05 18:24 | 34.74263 | 18.00192 | 35129 ft | 494 kts | 115° |
| 2026-05-05 18:25 | 34.71324 | 18.07741 | 35128 ft | 494 kts | 116° |
| 2026-05-05 18:25 | 34.68373 | 18.15284 | 35129 ft | 494 kts | 116° |
| 2026-05-05 18:26 | 34.65412 | 18.22820 | 35135 ft | 494 kts | 116° |
| 2026-05-05 18:26 | 34.62457 | 18.30358 | 35141 ft | 494 kts | 116° |
| 2026-05-05 18:27 | 34.59505 | 18.37898 | 35140 ft | 494 kts | 116° |
| 2026-05-05 18:27 | 34.56531 | 18.45434 | 35144 ft | 495 kts | 116° |
| 2026-05-05 18:28 | 34.52563 | 18.55448 | 35148 ft | 495 kts | 116° |
| 2026-05-05 18:28 | 34.49085 | 18.64238 | 35147 ft | 495 kts | 116° |
| 2026-05-05 18:29 | 34.46600 | 18.70487 | 35147 ft | 495 kts | 116° |
| 2026-05-05 18:29 | 34.43614 | 18.78003 | 35162 ft | 495 kts | 116° |
| 2026-05-05 18:30 | 34.40618 | 18.85525 | 35153 ft | 495 kts | 116° |
| 2026-05-05 18:30 | 34.37615 | 18.93029 | 35150 ft | 496 kts | 116° |
| 2026-05-05 18:31 | 34.34611 | 19.00495 | 35156 ft | 496 kts | 116° |
| 2026-05-05 18:31 | 34.31593 | 19.08006 | 35155 ft | 496 kts | 116° |
| 2026-05-05 18:32 | 34.28600 | 19.15533 | 35163 ft | 497 kts | 116° |
| 2026-05-05 18:32 | 34.25603 | 19.23058 | 35162 ft | 497 kts | 116° |
| 2026-05-05 18:33 | 34.22593 | 19.30586 | 35162 ft | 497 kts | 116° |
| 2026-05-05 18:33 | 34.19575 | 19.38096 | 35164 ft | 497 kts | 116° |
| 2026-05-05 18:34 | 34.16548 | 19.45608 | 35152 ft | 497 kts | 116° |
| 2026-05-05 18:34 | 34.13542 | 19.53053 | 35165 ft | 496 kts | 116° |
| 2026-05-05 18:35 | 34.10513 | 19.60541 | 35165 ft | 496 kts | 116° |
| 2026-05-05 18:35 | 34.07484 | 19.68026 | 35168 ft | 496 kts | 116° |
| 2026-05-05 18:36 | 34.04450 | 19.75514 | 35161 ft | 496 kts | 116° |
| 2026-05-05 18:36 | 34.01406 | 19.82982 | 35163 ft | 496 kts | 116° |
| 2026-05-05 18:37 | 33.98352 | 19.90447 | 35161 ft | 497 kts | 116° |
| 2026-05-05 18:37 | 33.95303 | 19.97915 | 35158 ft | 497 kts | 116° |
| 2026-05-05 18:38 | 33.92249 | 20.05369 | 35162 ft | 497 kts | 116° |
| 2026-05-05 18:38 | 33.89182 | 20.12835 | 35164 ft | 497 kts | 116° |
| 2026-05-05 18:39 | 33.86130 | 20.20237 | 35159 ft | 497 kts | 116° |
| 2026-05-05 18:39 | 33.83050 | 20.27691 | 35154 ft | 498 kts | 116° |
| 2026-05-05 18:40 | 33.79966 | 20.35155 | 35158 ft | 498 kts | 116° |
| 2026-05-05 18:40 | 33.76891 | 20.42604 | 35146 ft | 498 kts | 116° |
| 2026-05-05 18:41 | 33.73796 | 20.50050 | 35152 ft | 498 kts | 116° |
| 2026-05-05 18:41 | 33.70694 | 20.57500 | 35151 ft | 498 kts | 116° |
| 2026-05-05 18:42 | 33.67596 | 20.64932 | 35162 ft | 498 kts | 116° |
| 2026-05-05 18:42 | 33.64489 | 20.72377 | 35156 ft | 498 kts | 116° |
| 2026-05-05 18:43 | 33.61380 | 20.79800 | 35156 ft | 498 kts | 117° |
| 2026-05-05 18:43 | 33.58285 | 20.87165 | 35152 ft | 498 kts | 117° |
| 2026-05-05 18:44 | 33.55148 | 20.94637 | 35156 ft | 499 kts | 117° |
| 2026-05-05 18:44 | 33.52036 | 21.02018 | 35145 ft | 499 kts | 117° |
| 2026-05-05 18:45 | 33.48899 | 21.09453 | 35152 ft | 499 kts | 117° |
| 2026-05-05 18:45 | 33.45763 | 21.16867 | 35161 ft | 499 kts | 117° |
| 2026-05-05 18:46 | 33.42618 | 21.24285 | 35148 ft | 500 kts | 117° |
| 2026-05-05 18:46 | 33.39467 | 21.31704 | 35155 ft | 500 kts | 117° |
| 2026-05-05 18:47 | 33.36317 | 21.39128 | 35155 ft | 500 kts | 117° |
| 2026-05-05 18:47 | 33.33149 | 21.46554 | 35157 ft | 501 kts | 117° |
| 2026-05-05 18:48 | 33.30004 | 21.53916 | 35147 ft | 500 kts | 117° |
| 2026-05-05 18:48 | 33.26840 | 21.61319 | 35149 ft | 500 kts | 117° |
| 2026-05-05 18:49 | 33.23674 | 21.68717 | 35156 ft | 500 kts | 117° |
| 2026-05-05 18:49 | 33.20497 | 21.76107 | 35163 ft | 500 kts | 117° |
| 2026-05-05 18:50 | 33.17303 | 21.83500 | 35164 ft | 501 kts | 117° |
| 2026-05-05 18:50 | 33.14112 | 21.90887 | 35157 ft | 501 kts | 117° |
| 2026-05-05 18:51 | 33.10921 | 21.98272 | 35155 ft | 501 kts | 117° |
| 2026-05-05 18:51 | 33.07719 | 22.05648 | 35154 ft | 501 kts | 117° |
| 2026-05-05 18:52 | 33.04533 | 22.12967 | 35153 ft | 501 kts | 117° |
| 2026-05-05 18:52 | 33.01332 | 22.20337 | 35133 ft | 502 kts | 117° |
| 2026-05-05 18:53 | 32.98093 | 22.27754 | 35130 ft | 505 kts | 117° |
| 2026-05-05 18:53 | 32.94833 | 22.35195 | 35132 ft | 508 kts | 117° |
| 2026-05-05 18:54 | 32.91566 | 22.42665 | 35150 ft | 509 kts | 117° |
| 2026-05-05 18:54 | 32.88295 | 22.50148 | 35130 ft | 510 kts | 117° |
| 2026-05-05 18:55 | 32.85004 | 22.57632 | 35142 ft | 511 kts | 117° |
| 2026-05-05 18:55 | 32.81693 | 22.65114 | 35144 ft | 511 kts | 117° |
| 2026-05-05 18:56 | 32.78404 | 22.72546 | 35141 ft | 511 kts | 117° |
| 2026-05-05 18:56 | 32.75098 | 22.80029 | 35146 ft | 511 kts | 117° |
| 2026-05-05 18:57 | 32.71787 | 22.87512 | 35141 ft | 512 kts | 117° |
| 2026-05-05 18:57 | 32.68463 | 22.94992 | 35142 ft | 512 kts | 117° |
| 2026-05-05 18:58 | 32.65135 | 23.02473 | 35144 ft | 513 kts | 117° |
| 2026-05-05 18:58 | 32.61792 | 23.09947 | 35140 ft | 513 kts | 118° |
| 2026-05-05 18:59 | 32.58437 | 23.17414 | 35141 ft | 513 kts | 118° |
| 2026-05-05 18:59 | 32.55080 | 23.24896 | 35145 ft | 513 kts | 117° |
| 2026-05-05 19:00 | 32.51734 | 23.32374 | 35141 ft | 514 kts | 117° |
| 2026-05-05 19:00 | 32.48396 | 23.39797 | 35142 ft | 514 kts | 118° |
| 2026-05-05 19:01 | 32.45021 | 23.47263 | 35137 ft | 514 kts | 117° |
| 2026-05-05 19:01 | 32.41637 | 23.54732 | 35135 ft | 515 kts | 117° |
| 2026-05-05 19:02 | 32.38257 | 23.62213 | 35137 ft | 516 kts | 117° |
| 2026-05-05 19:02 | 32.34874 | 23.69698 | 35128 ft | 516 kts | 117° |
| 2026-05-05 19:03 | 32.31483 | 23.77168 | 35138 ft | 516 kts | 118° |
| 2026-05-05 19:03 | 32.28074 | 23.84638 | 35137 ft | 516 kts | 118° |
| 2026-05-05 19:04 | 32.24661 | 23.92106 | 35146 ft | 516 kts | 118° |
| 2026-05-05 19:04 | 32.21263 | 23.99528 | 35148 ft | 517 kts | 118° |
| 2026-05-05 19:05 | 32.17838 | 24.06985 | 35154 ft | 517 kts | 118° |
| 2026-05-05 19:05 | 32.14414 | 24.14440 | 35150 ft | 517 kts | 118° |
| 2026-05-05 19:06 | 32.10988 | 24.21891 | 35147 ft | 517 kts | 118° |
| 2026-05-05 19:06 | 32.07558 | 24.29336 | 35148 ft | 517 kts | 118° |
| 2026-05-05 19:07 | 32.04124 | 24.36775 | 35141 ft | 516 kts | 118° |
| 2026-05-05 19:07 | 32.00680 | 24.44206 | 35120 ft | 517 kts | 118° |
| 2026-05-05 19:08 | 31.97230 | 24.51632 | 35141 ft | 517 kts | 118° |
| 2026-05-05 19:08 | 31.93779 | 24.59053 | 35144 ft | 517 kts | 118° |
| 2026-05-05 19:09 | 31.90331 | 24.66462 | 35142 ft | 516 kts | 118° |
| 2026-05-05 19:09 | 31.86869 | 24.73878 | 35145 ft | 516 kts | 118° |
| 2026-05-05 19:10 | 31.83428 | 24.81229 | 35137 ft | 516 kts | 118° |
| 2026-05-05 19:10 | 31.79963 | 24.88625 | 35136 ft | 516 kts | 118° |
| 2026-05-05 19:11 | 31.76495 | 24.96018 | 35136 ft | 516 kts | 118° |
| 2026-05-05 19:11 | 31.73024 | 25.03405 | 35147 ft | 516 kts | 118° |
| 2026-05-05 19:12 | 31.69627 | 25.10844 | 35143 ft | 516 kts | 112° |
| 2026-05-05 19:12 | 31.67667 | 25.18871 | 35143 ft | 511 kts | 95° |
| 2026-05-05 19:13 | 31.66684 | 25.27140 | 35133 ft | 511 kts | 95° |
| 2026-05-05 19:13 | 31.65674 | 25.35402 | 35138 ft | 511 kts | 95° |
| 2026-05-05 19:14 | 31.64653 | 25.43664 | 35140 ft | 511 kts | 95° |
| 2026-05-05 19:14 | 31.63644 | 25.51927 | 35139 ft | 511 kts | 95° |
| 2026-05-05 19:15 | 31.62635 | 25.60133 | 35138 ft | 511 kts | 95° |
| 2026-05-05 19:15 | 31.61607 | 25.68393 | 35151 ft | 512 kts | 95° |
| 2026-05-05 19:16 | 31.60573 | 25.76655 | 35142 ft | 512 kts | 95° |
| 2026-05-05 19:16 | 31.59536 | 25.84920 | 35148 ft | 512 kts | 95° |
| 2026-05-05 19:17 | 31.58495 | 25.93175 | 35153 ft | 512 kts | 95° |
| 2026-05-05 19:17 | 31.57377 | 26.01430 | 35146 ft | 514 kts | 100° |
| 2026-05-05 19:18 | 31.55703 | 26.09589 | 35150 ft | 515 kts | 101° |
| 2026-05-05 19:18 | 31.54019 | 26.17749 | 35139 ft | 515 kts | 101° |
| 2026-05-05 19:19 | 31.52333 | 26.25909 | 35155 ft | 515 kts | 101° |
| 2026-05-05 19:19 | 31.50636 | 26.34068 | 35162 ft | 515 kts | 101° |
| 2026-05-05 19:20 | 31.48948 | 26.42174 | 35153 ft | 515 kts | 101° |
| 2026-05-05 19:20 | 31.47244 | 26.50331 | 35150 ft | 515 kts | 101° |
| 2026-05-05 19:21 | 31.45541 | 26.58485 | 35160 ft | 515 kts | 101° |
| 2026-05-05 19:21 | 31.43830 | 26.66639 | 35151 ft | 516 kts | 101° |
| 2026-05-05 19:22 | 31.42389 | 26.73475 | 35150 ft | 516 kts | 101° |
| 2026-05-05 19:22 | 31.40672 | 26.81575 | 35153 ft | 516 kts | 102° |
| 2026-05-05 19:23 | 31.38934 | 26.89719 | 35152 ft | 516 kts | 102° |
| 2026-05-05 19:23 | 31.37194 | 26.97863 | 35124 ft | 515 kts | 102° |
| 2026-05-05 19:24 | 31.36326 | 27.01919 | 34667 ft | 512 kts | 102° |
| 2026-05-05 19:24 | 31.35457 | 27.06005 | 33362 ft | 524 kts | 101° |
| 2026-05-05 19:24 | 31.34575 | 27.10155 | 32458 ft | 525 kts | 102° |
| 2026-05-05 19:24 | 31.33690 | 27.14287 | 31649 ft | 523 kts | 102° |
| 2026-05-05 19:25 | 31.32778 | 27.18396 | 30533 ft | 519 kts | 106° |
| 2026-05-05 19:25 | 31.31513 | 27.22353 | 28737 ft | 520 kts | 115° |
| 2026-05-05 19:25 | 31.29760 | 27.26049 | 27193 ft | 517 kts | 124° |
| 2026-05-05 19:25 | 31.27723 | 27.29474 | 26747 ft | 505 kts | 125° |
| 2026-05-05 19:26 | 31.25757 | 27.32831 | 26065 ft | 499 kts | 124° |
| 2026-05-05 19:26 | 31.23828 | 27.36187 | 25307 ft | 496 kts | 124° |
| 2026-05-05 19:26 | 31.21920 | 27.39535 | 24575 ft | 492 kts | 124° |
| 2026-05-05 19:26 | 31.20050 | 27.42810 | 23843 ft | 490 kts | 124° |
| 2026-05-05 19:27 | 31.18157 | 27.46104 | 23054 ft | 487 kts | 124° |
| 2026-05-05 19:27 | 31.16273 | 27.49358 | 22390 ft | 481 kts | 124° |
| 2026-05-05 19:27 | 31.14399 | 27.52582 | 21715 ft | 476 kts | 123° |
| 2026-05-05 19:27 | 31.12782 | 27.55930 | 21075 ft | 471 kts | 114° |
| 2026-05-05 19:28 | 31.11475 | 27.59416 | 20464 ft | 466 kts | 112° |
| 2026-05-05 19:28 | 31.10191 | 27.62871 | 19857 ft | 462 kts | 112° |
| 2026-05-05 19:28 | 31.08922 | 27.66289 | 19294 ft | 457 kts | 112° |
| 2026-05-05 19:28 | 31.07667 | 27.69672 | 18747 ft | 452 kts | 113° |
| 2026-05-05 19:29 | 31.06421 | 27.73015 | 18187 ft | 447 kts | 113° |
| 2026-05-05 19:29 | 31.05186 | 27.76318 | 17653 ft | 441 kts | 113° |
| 2026-05-05 19:29 | 31.03967 | 27.79573 | 17129 ft | 435 kts | 113° |
| 2026-05-05 19:29 | 31.02776 | 27.82752 | 16612 ft | 430 kts | 112° |
| 2026-05-05 19:30 | 31.01585 | 27.85935 | 16084 ft | 426 kts | 112° |
| 2026-05-05 19:30 | 31.00404 | 27.89090 | 15536 ft | 423 kts | 113° |
| 2026-05-05 19:30 | 30.99233 | 27.92216 | 15007 ft | 420 kts | 113° |
| 2026-05-05 19:30 | 30.98061 | 27.95341 | 14422 ft | 419 kts | 112° |
| 2026-05-05 19:31 | 30.96896 | 27.98450 | 13822 ft | 418 kts | 112° |
| 2026-05-05 19:31 | 30.95700 | 28.01534 | 13188 ft | 416 kts | 115° |
| 2026-05-05 19:31 | 30.94433 | 28.04554 | 12571 ft | 414 kts | 116° |
| 2026-05-05 19:31 | 30.93125 | 28.07518 | 11943 ft | 411 kts | 117° |
| 2026-05-05 19:32 | 30.91799 | 28.10464 | 11293 ft | 408 kts | 117° |
| 2026-05-05 19:32 | 30.90516 | 28.13315 | 10915 ft | 383 kts | 117° |
| 2026-05-05 19:32 | 30.89336 | 28.15959 | 10831 ft | 354 kts | 117° |
| 2026-05-05 19:32 | 30.88252 | 28.18415 | 10733 ft | 328 kts | 117° |
| 2026-05-05 19:33 | 30.87250 | 28.20701 | 10601 ft | 307 kts | 116° |
| 2026-05-05 19:33 | 30.86326 | 28.22819 | 10480 ft | 289 kts | 116° |
| 2026-05-05 19:33 | 30.85418 | 28.24899 | 10351 ft | 295 kts | 116° |
| 2026-05-05 19:33 | 30.84472 | 28.27068 | 10216 ft | 304 kts | 116° |
| 2026-05-05 19:34 | 30.83509 | 28.29266 | 9947 ft | 307 kts | 117° |
| 2026-05-05 19:34 | 30.82523 | 28.31516 | 9308 ft | 315 kts | 116° |
| 2026-05-05 19:34 | 30.81537 | 28.33770 | 8761 ft | 309 kts | 116° |
| 2026-05-05 19:35 | 30.79632 | 28.38113 | 7742 ft | 294 kts | 116° |
| 2026-05-05 19:35 | 30.78710 | 28.40202 | 7245 ft | 288 kts | 116° |
| 2026-05-05 19:35 | 30.77801 | 28.42267 | 6758 ft | 288 kts | 116° |
| 2026-05-05 19:35 | 30.76882 | 28.44351 | 6243 ft | 291 kts | 116° |
| 2026-05-05 19:36 | 30.75956 | 28.46461 | 5724 ft | 293 kts | 114° |
| 2026-05-05 19:36 | 30.75357 | 28.48709 | 5227 ft | 292 kts | 96° |
| 2026-05-05 19:36 | 30.75341 | 28.51050 | 4650 ft | 286 kts | 78° |
| 2026-05-05 19:36 | 30.75831 | 28.53220 | 4358 ft | 272 kts | 69° |
| 2026-05-05 19:37 | 30.76384 | 28.55326 | 4217 ft | 265 kts | 70° |
| 2026-05-05 19:37 | 30.76890 | 28.57322 | 4086 ft | 253 kts | 70° |
| 2026-05-05 19:37 | 30.77404 | 28.59265 | 3959 ft | 249 kts | 63° |
| 2026-05-05 19:37 | 30.78445 | 28.60773 | 3841 ft | 236 kts | 27° |
| 2026-05-05 19:38 | 30.79941 | 28.61263 | 3643 ft | 222 kts | 355° |
| 2026-05-05 19:38 | 30.81346 | 28.60721 | 3218 ft | 212 kts | 323° |
| 2026-05-05 19:38 | 30.82335 | 28.59493 | 2826 ft | 205 kts | 310° |
| 2026-05-05 19:38 | 30.83214 | 28.58237 | 2577 ft | 196 kts | 312° |
| 2026-05-05 19:39 | 30.84073 | 28.57061 | 2324 ft | 185 kts | 313° |
| 2026-05-05 19:39 | 30.84890 | 28.55960 | 2087 ft | 175 kts | 313° |
| 2026-05-05 19:39 | 30.85661 | 28.54925 | 1868 ft | 164 kts | 312° |
| 2026-05-05 19:39 | 30.86390 | 28.53946 | 1638 ft | 156 kts | 312° |
| 2026-05-05 19:40 | 30.87083 | 28.53016 | 1431 ft | 148 kts | 312° |
| 2026-05-05 19:40 | 30.87741 | 28.52133 | 1242 ft | 142 kts | 312° |
| 2026-05-05 19:40 | 30.88373 | 28.51284 | 1061 ft | 136 kts | 312° |
| 2026-05-05 19:40 | 30.88990 | 28.50455 | 875 ft | 135 kts | 311° |
| 2026-05-05 19:41 | 30.89600 | 28.49636 | 690 ft | 133 kts | 311° |
| 2026-05-05 19:41 | 30.90205 | 28.48822 | 519 ft | 132 kts | 311° |
| 2026-05-05 19:41 | 30.90793 | 28.48032 | 334 ft | 129 kts | 310° |
| 2026-05-05 19:41 | 30.91380 | 28.47243 | 193 ft | 127 kts | 311° |
| 2026-05-05 19:42 | 30.91957 | 28.46495 | 249 ft | 127 kts | 313° |
| 2026-05-05 19:42 | 30.92655 | 28.45640 | 459 ft | 163 kts | 314° |
| 2026-05-05 19:42 | 30.93518 | 28.44630 | 917 ft | 186 kts | 316° |
| 2026-05-05 19:42 | 30.94454 | 28.43461 | 1591 ft | 208 kts | 311° |
| 2026-05-05 19:43 | 30.95283 | 28.41968 | 2332 ft | 226 kts | 294° |
| 2026-05-05 19:43 | 30.95588 | 28.40316 | 2888 ft | 216 kts | 269° |
| 2026-05-05 19:43 | 30.95131 | 28.38520 | 2986 ft | 240 kts | 242° |
| 2026-05-05 19:43 | 30.93980 | 28.37091 | 3015 ft | 249 kts | 213° |
| 2026-05-05 19:44 | 30.92312 | 28.36462 | 3016 ft | 258 kts | 188° |
| 2026-05-05 19:44 | 30.90515 | 28.36575 | 3016 ft | 261 kts | 168° |
| 2026-05-05 19:44 | 30.88746 | 28.37085 | 3015 ft | 262 kts | 165° |
| 2026-05-05 19:44 | 30.86967 | 28.37585 | 3016 ft | 265 kts | 168° |
| 2026-05-05 19:45 | 30.85118 | 28.38027 | 3015 ft | 273 kts | 169° |
| 2026-05-05 19:45 | 30.83265 | 28.38499 | 2979 ft | 271 kts | 162° |
| 2026-05-05 19:45 | 30.81660 | 28.39601 | 3011 ft | 275 kts | 135° |
| 2026-05-05 19:45 | 30.80355 | 28.41237 | 2877 ft | 277 kts | 129° |
| 2026-05-05 19:46 | 30.79114 | 28.42913 | 2562 ft | 270 kts | 129° |
| 2026-05-05 19:46 | 30.77897 | 28.44541 | 2341 ft | 264 kts | 129° |
| 2026-05-05 19:46 | 30.76735 | 28.46172 | 2127 ft | 261 kts | 124° |
| 2026-05-05 19:46 | 30.75768 | 28.47920 | 2012 ft | 251 kts | 117° |
| 2026-05-05 19:47 | 30.74945 | 28.49692 | 2007 ft | 248 kts | 114° |
| 2026-05-05 19:47 | 30.74412 | 28.51567 | 2005 ft | 242 kts | 90° |
| 2026-05-05 19:47 | 30.74548 | 28.53488 | 2010 ft | 238 kts | 77° |
| 2026-05-05 19:47 | 30.74814 | 28.55391 | 2006 ft | 238 kts | 76° |
| 2026-05-05 19:48 | 30.75120 | 28.57249 | 2003 ft | 230 kts | 74° |
| 2026-05-05 19:48 | 30.75579 | 28.59004 | 2008 ft | 226 kts | 64° |
| 2026-05-05 19:48 | 30.76210 | 28.60668 | 2008 ft | 222 kts | 60° |
| 2026-05-05 19:48 | 30.76856 | 28.62229 | 2008 ft | 207 kts | 60° |
| 2026-05-05 19:49 | 30.77476 | 28.63698 | 2010 ft | 198 kts | 56° |
| 2026-05-05 19:49 | 30.78037 | 28.64491 | 2007 ft | 188 kts | 32° |
| 2026-05-05 19:49 | 30.79582 | 28.65033 | 1998 ft | 168 kts | 346° |
| 2026-05-05 19:49 | 30.80572 | 28.64386 | 2002 ft | 164 kts | 320° |
| 2026-05-05 19:50 | 30.81304 | 28.63391 | 2009 ft | 153 kts | 307° |
| 2026-05-05 19:50 | 30.81835 | 28.62360 | 2029 ft | 146 kts | 300° |
| 2026-05-05 19:50 | 30.82167 | 28.61294 | 2027 ft | 139 kts | 288° |
| 2026-05-05 19:50 | 30.82332 | 28.60201 | 2012 ft | 136 kts | 282° |
| 2026-05-05 19:51 | 30.82422 | 28.59105 | 2012 ft | 137 kts | 280° |
| 2026-05-05 19:51 | 30.82583 | 28.58021 | 2007 ft | 135 kts | 293° |
| 2026-05-05 19:51 | 30.83039 | 28.57087 | 1999 ft | 132 kts | 313° |
| 2026-05-05 19:51 | 30.83704 | 28.56356 | 1818 ft | 130 kts | 325° |
| 2026-05-05 19:52 | 30.84425 | 28.55778 | 1601 ft | 124 kts | 327° |
| 2026-05-05 19:52 | 30.85129 | 28.55199 | 1322 ft | 124 kts | 324° |
| 2026-05-05 19:52 | 30.85803 | 28.54593 | 1051 ft | 121 kts | 321° |
| 2026-05-05 19:52 | 30.86442 | 28.53940 | 931 ft | 122 kts | 317° |
| 2026-05-05 19:53 | 30.87036 | 28.53233 | 828 ft | 122 kts | 316° |
| 2026-05-05 19:53 | 30.87639 | 28.52534 | 784 ft | 123 kts | 315° |
| 2026-05-05 19:53 | 30.88227 | 28.51796 | 699 ft | 125 kts | 312° |
| 2026-05-05 19:53 | 30.88801 | 28.51033 | 658 ft | 127 kts | 311° |
| 2026-05-05 19:54 | 30.89389 | 28.50272 | 623 ft | 127 kts | 311° |
| 2026-05-05 19:54 | 30.89962 | 28.49499 | 557 ft | 127 kts | 311° |
| 2026-05-05 19:54 | 30.90534 | 28.48722 | 407 ft | 128 kts | 311° |
| 2026-05-05 19:54 | 30.91109 | 28.47951 | 293 ft | 127 kts | 312° |
| 2026-05-05 19:55 | 30.91675 | 28.47179 | 177 ft | 124 kts | 313° |
| 2026-05-05 19:55 | 30.92197 | 28.46483 | 149 ft | 95 kts | 310° |
| 2026-05-05 19:55 | 30.92456 | 28.46132 | 149 ft | 22 kts | 311° |
| 2026-05-05 19:55 | 30.92541 | 28.46100 | 150 ft | 14 kts | 24° |
| 2026-05-05 19:56 | 30.92629 | 28.46177 | 148 ft | 18 kts | 41° |
| 2026-05-05 19:56 | 30.92729 | 28.46277 | 148 ft | 20 kts | 40° |
| 2026-05-05 19:56 | 30.92820 | 28.46337 | 148 ft | 12 kts | 21° |
| 2026-05-05 19:56 | 30.92870 | 28.46380 | 148 ft | 0 kts | 40° |